Terminal Aerodrome Forecast
Issued by NWS

Home | Current Version | Previous Version | Text Only | Print | Product List | Glossary On
Versions: 1 2 3 4 5 6 7 8 9 10 11 12 13 14
000
FTUS43 KDTX 300642 AAB
TAFPTK
TAF AMD
KPTK 300642Z 3007/3106 02005KT P6SM -SHRA BKN050 OVC100
     FM300800 04007KT P6SM VCSH SCT050 BKN100
     FM301600 07009KT P6SM BKN060 BKN120
     FM310200 04006KT P6SM SCT060 SCT120=

USA.gov is the U.S. government's official web portal to all federal, state and local government web resources and services.